Time;durP1;ratioP1;P1;durP2;ratioP2;P2;SDS_P1;SDS_P2;PMS_P1;PMS_P2;Temp;Humidity;BMP_temperature;BMP_pressure;BME280_temperature;BME280_humidity;BME280_pressure;Samples;Min_cycle;Max_cycle;Signal;HPM_P1;HPM_P2
2023/10/04 00:00:50;;;;;;;1210.93;530.43;;;12.60;99.90;;;;;;5092945;28;20070;-84
2023/10/04 00:03:15;;;;;;;1194.07;517.87;;;12.50;99.90;;;;;;5073837;28;20044;-83
2023/10/04 00:05:42;;;;;;;1235.53;541.07;;;13.00;99.90;;;;;;5087349;28;20036;-84
2023/10/04 00:08:07;;;;;;;1236.80;545.80;;;12.60;99.90;;;;;;5071200;28;20048;-83
2023/10/04 00:10:34;;;;;;;1231.77;540.20;;;12.50;99.90;;;;;;5086415;28;20392;-84
2023/10/04 00:13:00;;;;;;;1238.53;546.20;;;12.60;99.90;;;;;;5092885;28;20051;-84
2023/10/04 00:15:27;;;;;;;1196.53;518.57;;;12.50;99.90;;;;;;5074593;28;20052;-83
2023/10/04 00:17:53;;;;;;;1230.43;543.10;;;12.50;99.90;;;;;;5074906;28;20072;-84
2023/10/04 00:20:20;;;;;;;1238.80;549.30;;;12.50;99.90;;;;;;5092607;28;20063;-83
2023/10/04 00:22:47;;;;;;;1198.53;518.17;;;12.50;99.90;;;;;;5092953;28;20062;-83
2023/10/04 00:25:20;;;;;;;1236.03;544.10;;;12.50;99.90;;;;;;5069783;28;20540;-83
2023/10/04 00:27:46;;;;;;;1201.63;519.20;;;12.40;99.90;;;;;;5055198;28;20055;-83
2023/10/04 00:30:18;;;;;;;1196.77;519.03;;;12.70;99.90;;;;;;5055175;28;20049;-84
2023/10/04 00:32:46;;;;;;;1232.20;541.70;;;12.40;99.90;;;;;;5075090;28;20045;-83
2023/10/04 00:35:17;;;;;;;1198.17;516.57;;;12.30;99.90;;;;;;5092849;28;20419;-83
2023/10/04 00:37:47;;;;;;;1199.73;518.33;;;12.30;99.90;;;;;;5055221;28;20393;-83
2023/10/04 00:40:19;;;;;;;1231.40;544.87;;;12.30;99.90;;;;;;5038207;28;20040;-84
2023/10/04 00:42:49;;;;;;;1229.00;543.53;;;12.30;99.90;;;;;;5072833;28;20091;-84
2023/10/04 00:45:20;;;;;;;1231.43;544.17;;;12.30;99.90;;;;;;5078528;28;20036;-84
2023/10/04 00:47:47;;;;;;;1189.53;506.33;;;12.30;99.90;;;;;;5070260;28;20044;-84
2023/10/04 00:50:18;;;;;;;1228.33;542.67;;;12.60;99.90;;;;;;5038301;28;20056;-84
2023/10/04 00:52:47;;;;;;;1196.40;518.93;;;12.30;99.90;;;;;;5077310;28;20437;-84
2023/10/04 00:55:18;;;;;;;1223.80;542.60;;;12.20;99.90;;;;;;5092655;28;20058;-82
2023/10/04 00:57:44;;;;;;;1190.00;511.70;;;12.20;99.90;;;;;;5091546;28;20058;-83
2023/10/04 01:00:11;;;;;;;1189.83;512.83;;;12.20;99.90;;;;;;5092571;28;20048;-83
2023/10/04 01:02:37;;;;;;;1193.40;510.17;;;12.20;99.90;;;;;;5074974;28;20051;-84
2023/10/04 01:05:04;;;;;;;1195.30;505.73;;;12.20;99.90;;;;;;5074622;28;20123;-84
2023/10/04 01:07:31;;;;;;;1196.17;514.90;;;12.20;99.90;;;;;;5091375;28;20546;-84
2023/10/04 01:09:58;;;;;;;1191.60;511.63;;;12.30;99.90;;;;;;5092251;28;20078;-83
2023/10/04 01:12:24;;;;;;;1225.13;539.63;;;12.20;99.90;;;;;;5094201;28;20044;-84
2023/10/04 01:14:53;;;;;;;1232.00;536.40;;;12.20;99.90;;;;;;5096505;28;20127;-84
2023/10/04 01:17:19;;;;;;;1198.40;509.73;;;12.20;99.90;;;;;;5076935;28;20047;-84
2023/10/04 01:19:45;;;;;;;1201.53;524.63;;;12.10;99.90;;;;;;5078427;28;20051;-83
2023/10/04 01:22:11;;;;;;;1203.83;521.07;;;12.10;99.90;;;;;;5096281;28;20048;-84
2023/10/04 01:24:41;;;;;;;1222.97;526.47;;;12.10;99.90;;;;;;5078294;28;20503;-84
2023/10/04 01:27:08;;;;;;;1225.50;526.67;;;12.10;99.90;;;;;;5061749;28;20484;-84
2023/10/04 01:29:33;;;;;;;1264.67;547.37;;;12.40;99.90;;;;;;5095927;28;20050;-84
2023/10/04 01:31:59;;;;;;;1209.60;523.37;;;12.20;99.90;;;;;;5095965;28;20130;-84
2023/10/04 01:34:25;;;;;;;1222.33;523.07;;;12.40;99.90;;;;;;5096228;28;20071;-84
2023/10/04 01:36:51;;;;;;;1269.07;592.70;;;12.10;99.90;;;;;;5096211;28;20097;-84
2023/10/04 01:39:18;;;;;;;1276.97;596.53;;;12.10;99.90;;;;;;5095415;28;20048;-83
2023/10/04 01:41:44;;;;;;;1114.07;553.77;;;12.10;99.90;;;;;;5095835;28;20482;-84
2023/10/04 01:44:10;;;;;;;176.38;80.50;;;12.00;99.90;;;;;;5096309;28;20040;-84
2023/10/04 01:46:38;;;;;;;2.83;0.57;;;12.10;99.90;;;;;;5077554;28;20040;-84
2023/10/04 01:49:07;;;;;;;98.90;43.88;;;12.10;99.90;;;;;;5077801;28;20059;-84
2023/10/04 01:51:33;;;;;;;10.63;9.80;;;12.10;99.90;;;;;;5095733;28;20035;-84
2023/10/04 01:53:59;;;;;;;3.80;0.40;;;12.30;99.90;;;;;;5095599;28;20043;-84
2023/10/04 01:56:25;;;;;;;8.07;0.95;;;12.10;99.90;;;;;;5077990;28;20048;-84
2023/10/04 01:58:51;;;;;;;106.47;99.07;;;12.10;99.90;;;;;;5076085;28;20047;-84
2023/10/04 02:01:17;;;;;;;2.75;0.60;;;12.10;99.90;;;;;;5095421;28;20058;-84
2023/10/04 02:03:44;;;;;;;4.05;0.60;;;12.00;99.90;;;;;;5095451;28;20539;-84
2023/10/04 02:06:09;;;;;;;6.70;0.70;;;12.10;99.90;;;;;;5077775;28;20154;-84
2023/10/04 02:08:35;;;;;;;2.97;0.70;;;12.30;99.90;;;;;;5077183;28;20127;-84
2023/10/04 02:11:04;;;;;;;2.55;0.52;;;12.10;99.90;;;;;;5077314;28;20403;-85
2023/10/04 02:13:32;;;;;;;3.85;0.50;;;12.40;99.90;;;;;;5094998;28;20534;-83
2023/10/04 02:15:59;;;;;;;9.48;0.95;;;12.40;99.90;;;;;;5040609;28;20037;-84
2023/10/04 02:18:25;;;;;;;4.10;0.63;;;12.10;99.90;;;;;;5041012;28;20400;-84
2023/10/04 02:20:53;;;;;;;7.45;6.13;;;12.30;99.90;;;;;;5059964;28;20164;-84
2023/10/04 02:23:19;;;;;;;14.82;13.75;;;12.10;99.90;;;;;;5094664;28;20048;-84
2023/10/04 02:29:27;;;;;;;37.75;35.38;;;12.10;99.90;;;;;;5095168;28;20039;-85
2023/10/04 02:31:53;;;;;;;27.05;25.30;;;12.10;99.90;;;;;;5095118;28;20037;-85
2023/10/04 02:34:20;;;;;;;88.47;82.82;;;12.10;99.90;;;;;;5076931;28;20052;-85
2023/10/04 02:36:48;;;;;;;49.00;46.20;;;12.10;99.90;;;;;;5095604;28;20040;-84
2023/10/04 02:39:13;;;;;;;95.53;90.18;;;12.00;99.90;;;;;;5095517;28;20390;-85
2023/10/04 02:41:41;;;;;;;236.38;222.27;;;12.10;99.90;;;;;;5077319;28;20043;-84
2023/10/04 02:44:08;;;;;;;137.70;130.27;;;12.20;99.90;;;;;;5064729;28;20485;-85
2023/10/04 02:46:34;;;;;;;280.13;264.60;;;12.60;99.90;;;;;;5075055;28;20046;-85
2023/10/04 02:49:01;;;;;;;347.98;327.77;;;12.20;99.90;;;;;;5077536;28;20048;-84
2023/10/04 02:51:26;;;;;;;320.75;302.80;;;12.10;99.90;;;;;;5098140;28;20044;-83
2023/10/04 02:53:52;;;;;;;389.80;367.63;;;12.10;99.90;;;;;;5108388;28;20040;-83
2023/10/04 02:56:18;;;;;;;187.13;177.85;;;12.30;99.90;;;;;;5105410;28;20047;-84
2023/10/04 02:58:43;;;;;;;543.47;498.23;;;12.10;99.90;;;;;;5098509;28;20052;-84
2023/10/04 03:01:18;;;;;;;487.40;348.88;;;12.40;99.90;;;;;;5085888;28;20500;-84
2023/10/04 03:03:44;;;;;;;355.15;315.05;;;12.20;99.90;;;;;;5093315;28;20047;-84
2023/10/04 03:06:11;;;;;;;542.50;354.85;;;12.40;99.90;;;;;;5063189;28;20048;-84
2023/10/04 03:08:37;;;;;;;734.28;525.92;;;12.40;99.90;;;;;;5096041;28;20050;-85
2023/10/04 03:11:03;;;;;;;701.58;522.17;;;12.10;99.90;;;;;;5098101;28;20121;-84
2023/10/04 03:13:32;;;;;;;648.55;512.88;;;12.10;99.90;;;;;;5097818;28;20051;-84
2023/10/04 03:15:58;;;;;;;570.38;364.88;;;12.10;99.90;;;;;;5055668;28;20095;-84
2023/10/04 03:18:25;;;;;;;621.05;380.45;;;12.10;99.90;;;;;;5068612;28;20080;-84
2023/10/04 03:23:40;;;;;;;650.78;387.80;;;12.10;99.90;;;;;;5074123;28;20048;-84
2023/10/04 03:26:06;;;;;;;766.83;512.35;;;12.10;99.90;;;;;;5091018;28;20047;-83
2023/10/04 03:28:37;;;;;;;658.17;385.77;;;12.10;99.90;;;;;;5076113;28;20040;-85
2023/10/04 03:31:10;;;;;;;756.65;511.60;;;12.20;99.90;;;;;;5072303;28;20052;-84
2023/10/04 03:33:36;;;;;;;753.03;524.25;;;12.20;99.90;;;;;;5056135;28;20036;-85
2023/10/04 03:36:05;;;;;;;652.35;388.10;;;12.20;99.90;;;;;;5084608;28;20040;-84
2023/10/04 03:38:33;;;;;;;764.47;537.38;;;12.20;99.90;;;;;;5093776;28;20412;-85
2023/10/04 03:41:06;;;;;;;753.90;537.15;;;12.20;99.90;;;;;;5075918;28;20052;-84
2023/10/04 03:43:34;;;;;;;667.88;396.58;;;12.40;99.90;;;;;;5094078;28;20055;-84
2023/10/04 03:46:08;;;;;;;762.38;518.83;;;12.40;99.90;;;;;;5093746;28;20047;-85
2023/10/04 03:48:37;;;;;;;683.72;388.55;;;12.20;99.90;;;;;;5092211;28;20104;-85
2023/10/04 03:51:03;;;;;;;653.33;386.98;;;12.20;99.90;;;;;;5093536;28;20051;-84
2023/10/04 03:53:29;;;;;;;645.85;384.65;;;12.30;99.90;;;;;;5075595;28;20064;-85
2023/10/04 03:55:59;;;;;;;694.40;396.48;;;12.20;99.90;;;;;;5075663;28;20054;-85
2023/10/04 03:58:25;;;;;;;769.15;534.22;;;12.20;99.90;;;;;;5093183;28;20071;-85
2023/10/04 04:00:51;;;;;;;667.50;393.15;;;12.20;99.90;;;;;;5075623;28;20509;-85
2023/10/04 04:03:18;;;;;;;654.90;391.10;;;12.20;99.90;;;;;;5093716;28;20046;-83
2023/10/04 04:05:44;;;;;;;637.83;383.85;;;12.20;99.90;;;;;;5092927;28;20085;-84
2023/10/04 04:08:12;;;;;;;734.95;513.63;;;12.20;99.90;;;;;;5092553;28;20044;-85
2023/10/04 04:10:37;;;;;;;640.30;384.08;;;12.10;99.90;;;;;;5091680;28;20047;-85
2023/10/04 04:13:06;;;;;;;683.78;394.85;;;12.40;99.90;;;;;;5093155;28;20047;-85
2023/10/04 04:15:36;;;;;;;781.20;527.17;;;12.50;99.90;;;;;;5092013;28;20055;-84
2023/10/04 04:18:05;;;;;;;696.17;400.17;;;12.50;99.90;;;;;;5092842;28;20430;-85
2023/10/04 04:20:32;;;;;;;690.80;399.45;;;12.10;99.90;;;;;;5093082;28;20058;-85
2023/10/04 04:22:57;;;;;;;677.83;397.35;;;12.10;99.90;;;;;;5093251;28;20060;-84
2023/10/04 04:25:25;;;;;;;749.67;522.47;;;12.10;99.90;;;;;;5091758;28;20122;-85
2023/10/04 04:27:52;;;;;;;737.05;513.58;;;12.20;99.90;;;;;;5058625;28;20073;-85
2023/10/04 04:30:21;;;;;;;623.00;383.20;;;12.20;99.90;;;;;;5092620;28;20077;-85
2023/10/04 04:32:48;;;;;;;689.35;517.97;;;12.00;99.90;;;;;;5092121;28;20527;-84
2023/10/04 04:35:22;;;;;;;593.10;371.05;;;12.00;99.90;;;;;;5074991;28;20052;-84
2023/10/04 04:37:54;;;;;;;579.75;370.52;;;12.00;99.90;;;;;;5092997;28;20044;-84
2023/10/04 04:40:24;;;;;;;658.05;516.45;;;12.00;99.90;;;;;;5092677;28;20118;-84
2023/10/04 04:42:50;;;;;;;675.30;525.08;;;12.00;99.90;;;;;;5075093;28;20071;-85
2023/10/04 04:45:16;;;;;;;607.40;376.02;;;12.10;99.90;;;;;;5073778;28;20488;-84
2023/10/04 04:47:44;;;;;;;590.03;374.58;;;12.00;99.90;;;;;;5092216;28;20044;-84
2023/10/04 04:50:12;;;;;;;694.30;526.17;;;11.90;99.90;;;;;;5073805;28;20036;-84
2023/10/04 04:52:37;;;;;;;587.35;370.63;;;12.00;99.90;;;;;;5057831;28;20605;-85
2023/10/04 04:55:04;;;;;;;588.85;370.55;;;12.40;99.90;;;;;;5074567;28;20173;-84
2023/10/04 04:57:31;;;;;;;676.25;506.17;;;11.80;99.90;;;;;;5093103;28;20098;-85
2023/10/04 04:59:57;;;;;;;681.78;516.40;;;11.90;99.90;;;;;;5074423;28;20123;-84
2023/10/04 05:02:30;;;;;;;762.72;526.97;;;12.00;99.90;;;;;;5092306;28;20111;-85
2023/10/04 05:04:57;;;;;;;854.75;541.55;;;11.90;99.90;;;;;;5070635;28;20484;-84
2023/10/04 05:07:27;;;;;;;770.30;416.00;;;11.90;99.90;;;;;;5072329;28;20130;-84
2023/10/04 05:09:54;;;;;;;778.88;422.27;;;11.90;99.90;;;;;;5072719;28;20047;-84
2023/10/04 05:12:19;;;;;;;810.63;423.88;;;11.90;99.90;;;;;;5068974;28;20383;-85
2023/10/04 05:14:45;;;;;;;890.65;522.80;;;12.40;99.90;;;;;;5092576;28;20047;-84
2023/10/04 05:17:11;;;;;;;895.05;536.33;;;11.90;99.90;;;;;;5091726;28;20115;-84
2023/10/04 05:19:37;;;;;;;895.03;532.75;;;12.00;99.90;;;;;;5054681;28;20057;-84
2023/10/04 05:22:03;;;;;;;914.25;536.35;;;11.90;99.90;;;;;;5078892;28;20127;-85
2023/10/04 05:24:30;;;;;;;842.80;433.77;;;11.90;99.90;;;;;;5073871;28;20056;-84
2023/10/04 05:26:56;;;;;;;831.15;433.38;;;11.90;99.90;;;;;;5070731;28;20044;-84
2023/10/04 05:29:22;;;;;;;824.65;426.02;;;12.20;99.90;;;;;;5054245;28;20052;-84
2023/10/04 05:31:48;;;;;;;820.83;429.23;;;12.20;99.90;;;;;;5072157;28;20078;-82
2023/10/04 05:34:14;;;;;;;822.97;432.95;;;12.00;99.90;;;;;;5091802;28;20076;-82
2023/10/04 05:36:40;;;;;;;814.83;428.38;;;12.50;99.90;;;;;;5092330;28;20425;-82
2023/10/04 05:39:08;;;;;;;915.42;538.10;;;12.10;99.90;;;;;;5074586;28;20048;-84
2023/10/04 05:41:35;;;;;;;908.47;547.25;;;11.90;99.90;;;;;;5092170;28;20181;-82
2023/10/04 05:44:01;;;;;;;886.00;524.05;;;12.20;99.90;;;;;;5091710;28;20048;-82
2023/10/04 05:46:26;;;;;;;881.22;536.70;;;12.00;99.90;;;;;;5092055;28;20044;-83
2023/10/04 05:48:52;;;;;;;890.42;550.90;;;12.00;99.90;;;;;;5073204;28;20494;-83
2023/10/04 05:51:24;;;;;;;870.35;535.60;;;11.90;99.90;;;;;;5091822;28;20356;-83
2023/10/04 05:53:51;;;;;;;801.95;425.58;;;12.00;99.90;;;;;;5091984;28;20082;-83
2023/10/04 05:56:19;;;;;;;779.78;416.50;;;12.00;99.90;;;;;;5052365;28;20119;-84
2023/10/04 05:58:46;;;;;;;900.35;539.13;;;12.30;99.90;;;;;;5072730;28;20044;-83
2023/10/04 06:01:17;;;;;;;869.28;532.22;;;12.50;99.90;;;;;;5070804;28;20106;-83
2023/10/04 06:03:44;;;;;;;791.15;423.27;;;12.00;99.90;;;;;;5075433;28;20063;-84
2023/10/04 06:06:10;;;;;;;783.42;421.52;;;12.00;99.90;;;;;;5094717;28;20040;-83
2023/10/04 06:08:36;;;;;;;867.17;542.83;;;12.00;99.90;;;;;;5095802;28;20098;-84
2023/10/04 06:11:02;;;;;;;755.20;407.58;;;12.00;99.90;;;;;;5095705;28;20036;-84
2023/10/04 06:13:28;;;;;;;858.03;540.35;;;12.20;99.90;;;;;;5095628;28;20422;-84
2023/10/04 06:15:55;;;;;;;740.80;414.67;;;12.00;99.90;;;;;;5094679;28;20047;-83
2023/10/04 06:18:22;;;;;;;851.28;535.65;;;12.10;99.90;;;;;;5077330;28;20052;-84
2023/10/04 06:20:49;;;;;;;754.60;416.60;;;12.30;99.90;;;;;;5076920;28;20101;-84
2023/10/04 06:23:16;;;;;;;831.15;522.25;;;12.20;99.90;;;;;;5076579;28;20127;-83
2023/10/04 06:25:52;;;;;;;845.08;525.20;;;12.30;99.90;;;;;;5093354;28;20126;-85
2023/10/04 06:28:18;;;;;;;730.55;409.67;;;12.10;99.90;;;;;;5061760;28;20124;-84
2023/10/04 06:30:50;;;;;;;723.80;401.00;;;12.10;99.90;;;;;;5055397;28;20039;-85
2023/10/04 06:33:15;;;;;;;722.20;409.77;;;12.10;99.90;;;;;;5077021;28;20088;-86
2023/10/04 06:35:46;;;;;;;818.97;524.10;;;12.10;99.90;;;;;;5076894;28;20476;-84
2023/10/04 06:38:13;;;;;;;725.45;405.60;;;12.20;99.90;;;;;;5073378;28;20044;-83
2023/10/04 06:40:39;;;;;;;828.08;529.72;;;12.20;99.90;;;;;;5075375;28;20105;-86
2023/10/04 06:43:06;;;;;;;742.47;415.13;;;12.20;99.90;;;;;;5057284;28;20055;-89
2023/10/04 06:45:34;;;;;;;836.55;532.63;;;12.20;99.90;;;;;;5067551;28;20047;-86
2023/10/04 06:48:01;;;;;;;848.13;537.83;;;12.30;99.90;;;;;;5090666;28;20095;-83
2023/10/04 06:50:28;;;;;;;860.13;530.83;;;12.30;99.90;;;;;;5076826;28;20071;-85
2023/10/04 06:52:57;;;;;;;789.60;424.65;;;12.40;99.90;;;;;;5094726;28;20044;-85
2023/10/04 06:55:23;;;;;;;803.58;429.92;;;12.40;99.90;;;;;;5077183;28;20195;-85
2023/10/04 06:57:49;;;;;;;807.22;429.30;;;12.80;99.90;;;;;;5055315;28;20358;-84
2023/10/04 07:00:18;;;;;;;817.63;433.95;;;12.50;99.90;;;;;;5051603;28;20051;-85
2023/10/04 07:02:57;;;;;;;952.90;520.90;;;12.50;99.90;;;;;;5074223;28;20044;-85
2023/10/04 07:05:26;;;;;;;882.15;446.90;;;12.60;99.90;;;;;;5074415;28;20053;-86
2023/10/04 07:07:54;;;;;;;904.45;450.55;;;12.70;99.90;;;;;;5075618;28;20401;-85
2023/10/04 07:10:21;;;;;;;1011.75;535.60;;;12.70;99.90;;;;;;5093823;28;20058;-84
2023/10/04 07:12:57;;;;;;;1018.67;565.80;;;12.80;99.90;;;;;;5093657;28;20071;-85
2023/10/04 07:15:39;;;;;;;993.97;558.30;;;12.90;99.90;;;;;;5076580;28;20043;-85
2023/10/04 07:18:06;;;;;;;1011.65;553.83;;;13.00;99.90;;;;;;5074423;28;20041;-84
2023/10/04 07:20:33;;;;;;;989.35;545.17;;;13.00;99.90;;;;;;5074047;28;20510;-86
2023/10/04 07:23:03;;;;;;;883.42;444.77;;;13.10;99.90;;;;;;5055746;28;20049;-84
2023/10/04 07:25:34;;;;;;;976.10;543.22;;;13.20;99.90;;;;;;5054299;28;20044;-84
2023/10/04 07:28:02;;;;;;;957.47;546.47;;;13.30;99.90;;;;;;5033885;28;20536;-83
2023/10/04 07:30:31;;;;;;;963.20;572.38;;;13.30;99.90;;;;;;5054841;28;20052;-84
2023/10/04 07:32:59;;;;;;;967.42;569.78;;;13.50;99.90;;;;;;5055853;28;20040;-85
2023/10/04 07:35:25;;;;;;;859.40;451.52;;;13.50;99.90;;;;;;5039426;28;20180;-84
2023/10/04 07:37:51;;;;;;;833.30;446.20;;;13.70;99.90;;;;;;5055724;28;20045;-85
2023/10/04 07:40:17;;;;;;;933.55;580.95;;;14.00;99.90;;;;;;5073342;28;20048;-84
2023/10/04 07:42:51;;;;;;;965.47;578.08;;;14.00;99.90;;;;;;5055724;28;20036;-84
2023/10/04 07:45:18;;;;;;;951.60;578.67;;;13.90;99.90;;;;;;5035002;28;20072;-85
2023/10/04 07:47:44;;;;;;;950.65;585.85;;;14.00;99.90;;;;;;5046484;28;20045;-84
2023/10/04 07:50:13;;;;;;;838.33;444.92;;;14.00;99.90;;;;;;5055400;28;20113;-84
2023/10/04 07:52:40;;;;;;;841.78;457.23;;;14.20;99.90;;;;;;5073206;28;20378;-84
2023/10/04 07:55:14;;;;;;;821.47;452.20;;;14.20;99.90;;;;;;5051631;28;20552;-83
2023/10/04 07:57:44;;;;;;;920.03;588.53;;;14.30;99.90;;;;;;5061032;28;20047;-83
2023/10/04 08:00:13;;;;;;;794.75;453.70;;;14.40;99.90;;;;;;5054521;28;20527;-82
2023/10/04 08:02:46;;;;;;;790.83;444.67;;;14.50;99.90;;;;;;5072561;28;20083;-83
2023/10/04 08:05:17;;;;;;;811.25;452.73;;;14.50;99.90;;;;;;5064079;28;20121;-84
2023/10/04 08:07:43;;;;;;;795.58;450.13;;;14.70;99.90;;;;;;5037857;28;20040;-83
2023/10/04 08:10:09;;;;;;;769.67;447.60;;;14.70;99.90;;;;;;5055435;28;20159;-83
2023/10/04 08:12:35;;;;;;;741.40;439.35;;;14.80;99.90;;;;;;5054279;28;20043;-83
2023/10/04 08:15:03;;;;;;;885.15;600.13;;;14.90;99.90;;;;;;5072756;28;20119;-84
2023/10/04 08:17:29;;;;;;;756.05;449.38;;;15.00;99.90;;;;;;5054918;28;20044;-83
2023/10/04 08:19:57;;;;;;;752.20;450.73;;;15.10;99.90;;;;;;5054443;28;20055;-83
2023/10/04 08:22:23;;;;;;;869.28;600.50;;;15.30;99.90;;;;;;5087927;28;20044;-83
2023/10/04 08:24:49;;;;;;;886.22;618.33;;;15.30;99.90;;;;;;5071057;28;20132;-81
2023/10/04 08:27:16;;;;;;;878.03;622.92;;;15.40;99.90;;;;;;5072824;28;20119;-86
2023/10/04 08:29:43;;;;;;;732.55;442.90;;;15.40;99.90;;;;;;5062340;28;20399;-84
2023/10/04 08:32:10;;;;;;;706.35;438.98;;;15.50;99.90;;;;;;5092897;28;20062;-83
2023/10/04 08:34:37;;;;;;;693.38;444.10;;;15.60;99.90;;;;;;5092341;28;20047;-85
2023/10/04 08:37:03;;;;;;;799.22;622.00;;;15.60;99.90;;;;;;5074576;28;20072;-84
2023/10/04 08:39:29;;;;;;;674.95;444.33;;;15.70;99.90;;;;;;5074550;28;20086;-84
2023/10/04 08:41:55;;;;;;;796.25;620.00;;;15.70;99.90;;;;;;5083576;28;20048;-84
2023/10/04 08:44:21;;;;;;;809.95;631.88;;;15.80;99.90;;;;;;5073252;28;20059;-84
2023/10/04 08:46:47;;;;;;;689.45;450.98;;;15.80;99.90;;;;;;5072316;28;20040;-84
2023/10/04 08:49:18;;;;;;;807.75;629.45;;;15.90;99.90;;;;;;5074042;28;20118;-81
2023/10/04 08:51:53;;;;;;;811.70;639.70;;;16.00;99.90;;;;;;5092939;28;20361;-84
2023/10/04 08:54:23;;;;;;;838.28;642.92;;;16.10;99.90;;;;;;5068799;28;20055;-84
2023/10/04 08:57:14;;;;;;;819.78;641.65;;;16.20;99.90;;;;;;5090945;28;20119;-84
2023/10/04 08:59:41;;;;;;;843.53;632.03;;;16.30;99.90;;;;;;5092463;28;20047;-85
2023/10/04 09:02:12;;;;;;;718.95;457.10;;;16.40;99.90;;;;;;5092780;28;20127;-84
2023/10/04 09:04:39;;;;;;;705.40;458.13;;;16.50;99.90;;;;;;5092569;28;20430;-84
2023/10/04 09:07:08;;;;;;;729.65;467.23;;;16.60;99.90;;;;;;5073484;28;20043;-85
2023/10/04 09:09:38;;;;;;;849.53;647.45;;;16.70;99.90;;;;;;5074264;28;20086;-84
2023/10/04 09:12:06;;;;;;;727.13;470.75;;;16.80;99.90;;;;;;5074195;28;20051;-83
2023/10/04 09:14:33;;;;;;;827.70;659.00;;;16.80;99.90;;;;;;5081492;28;20076;-85
2023/10/04 09:17:14;;;;;;;865.10;661.78;;;16.90;99.90;;;;;;5053936;28;20040;-84
2023/10/04 09:19:40;;;;;;;873.80;664.85;;;17.10;99.90;;;;;;5054251;28;20040;-84
2023/10/04 09:22:08;;;;;;;890.90;669.83;;;17.20;99.90;;;;;;5037743;28;20504;-85
2023/10/04 09:24:54;;;;;;;886.63;678.20;;;17.40;99.90;;;;;;5072292;28;20049;-85
2023/10/04 09:27:21;;;;;;;910.60;681.83;;;17.40;99.90;;;;;;5073555;28;20429;-84
2023/10/04 09:29:53;;;;;;;914.53;684.97;;;17.50;99.90;;;;;;5073964;28;20101;-85
2023/10/04 09:32:40;;;;;;;695.78;469.48;;;17.60;99.90;;;;;;5074295;28;20169;-85
2023/10/04 09:35:06;;;;;;;1041.70;705.25;;;17.60;99.90;;;;;;5077407;28;20078;-84
2023/10/04 09:37:32;;;;;;;1038.53;701.95;;;17.70;99.90;;;;;;5094209;28;20122;-84
2023/10/04 09:40:08;;;;;;;1047.38;695.35;;;17.60;99.90;;;;;;5061652;28;20123;-84
2023/10/04 09:42:51;;;;;;;941.97;529.83;;;17.60;99.90;;;;;;5095518;28;20400;-83
2023/10/04 09:45:20;;;;;;;1108.53;710.10;;;17.60;99.90;;;;;;5079480;28;20044;-84
2023/10/04 09:47:46;;;;;;;1142.18;697.10;;;17.60;99.90;;;;;;5092262;28;20044;-81
2023/10/04 09:50:23;;;;;;;1031.75;547.42;;;17.70;99.90;;;;;;5095758;28;20032;-83
2023/10/04 09:52:50;;;;;;;1166.60;712.63;;;17.80;99.90;;;;;;5095559;28;20411;-83
2023/10/04 09:55:16;;;;;;;1065.22;565.28;;;18.00;99.90;;;;;;5095621;28;20048;-83
2023/10/04 09:57:43;;;;;;;1029.63;551.85;;;18.10;99.90;;;;;;5095519;28;20096;-84
2023/10/04 10:00:17;;;;;;;1032.35;561.47;;;18.20;99.90;;;;;;5071215;28;20048;-81
2023/10/04 10:02:47;;;;;;;1177.68;723.78;;;18.30;99.90;;;;;;5058109;28;20369;-84
2023/10/04 10:05:25;;;;;;;1005.72;547.35;;;18.40;99.90;;;;;;5077652;28;20051;-85
2023/10/04 10:07:53;;;;;;;1000.78;544.33;;;18.50;99.90;;;;;;5066073;28;20049;-83
2023/10/04 10:10:20;;;;;;;1005.28;550.75;;;18.60;99.90;;;;;;5075517;28;20075;-83
2023/10/04 10:12:49;;;;;;;1009.78;557.90;;;18.60;99.90;;;;;;5081108;28;20036;-81
2023/10/04 10:15:18;;;;;;;1157.68;737.50;;;18.70;99.90;;;;;;5077395;28;20051;-81
2023/10/04 10:17:46;;;;;;;1133.75;738.25;;;18.80;99.90;;;;;;5095630;28;20101;-84
2023/10/04 10:20:15;;;;;;;1132.07;734.90;;;18.80;99.90;;;;;;5095442;28;20127;-83
2023/10/04 10:22:58;;;;;;;1143.63;754.22;;;18.90;99.90;;;;;;5094407;28;20135;-83
2023/10/04 10:25:29;;;;;;;995.70;556.03;;;18.90;99.90;;;;;;5076038;28;20040;-83
2023/10/04 10:27:58;;;;;;;1130.05;738.13;;;18.90;99.90;;;;;;5095145;28;20044;-84
2023/10/04 10:30:34;;;;;;;1000.10;560.53;;;19.00;99.90;;;;;;5077145;28;20399;-84
2023/10/04 10:33:02;;;;;;;994.65;563.72;;;19.00;99.90;;;;;;5077205;28;20051;-83
2023/10/04 10:35:57;;;;;;;995.30;559.53;;;19.00;99.90;;;;;;5094772;28;20040;-83
2023/10/04 10:38:41;;;;;;;974.88;557.80;;;19.00;99.90;;;;;;4991538;28;20066;-83
2023/10/04 10:41:27;;;;;;;983.90;561.70;;;19.00;99.90;;;;;;4993227;28;20153;-84
2023/10/04 10:44:11;;;;;;;990.15;566.88;;;19.00;99.90;;;;;;4989490;28;20113;-84
2023/10/04 10:46:54;;;;;;;979.13;557.67;;;19.00;99.90;;;;;;4992068;28;20104;-84
2023/10/04 10:49:48;;;;;;;996.05;567.40;;;19.00;99.90;;;;;;4977069;28;20054;-83
2023/10/04 10:52:28;;;;;;;1014.38;569.72;;;18.90;99.90;;;;;;4977050;28;20050;-84
2023/10/04 10:54:56;;;;;;;990.55;558.85;;;18.80;99.90;;;;;;4975000;28;20046;-84
2023/10/04 10:57:28;;;;;;;1155.32;755.60;;;18.80;99.90;;;;;;4988270;28;20043;-84
2023/10/04 10:59:56;;;;;;;1001.75;559.70;;;18.80;99.90;;;;;;4941439;28;20057;-82
2023/10/04 11:02:24;;;;;;;1158.72;761.08;;;18.70;99.90;;;;;;4957493;28;20133;-82
2023/10/04 11:04:50;;;;;;;1169.63;750.67;;;18.70;99.90;;;;;;4973513;28;20043;-83
2023/10/04 11:07:17;;;;;;;1046.65;571.28;;;18.60;99.90;;;;;;4950350;28;20503;-83
2023/10/04 11:09:48;;;;;;;1047.22;566.85;;;18.60;99.90;;;;;;4973432;28;20070;-83
2023/10/04 11:12:17;;;;;;;1203.38;754.53;;;18.60;99.90;;;;;;4973334;28;20126;-83
2023/10/04 11:14:44;;;;;;;1196.28;747.80;;;18.60;99.90;;;;;;4998845;28;20088;-84
2023/10/04 11:17:10;;;;;;;1208.03;757.67;;;18.50;99.90;;;;;;5083883;28;20385;-83
2023/10/04 11:19:36;;;;;;;1210.28;753.72;;;18.40;99.90;;;;;;5076409;28;20119;-84
2023/10/04 11:22:03;;;;;;;1067.65;567.60;;;18.50;99.90;;;;;;5071494;28;20131;-82
2023/10/04 11:24:29;;;;;;;1089.47;572.22;;;18.40;99.90;;;;;;5073791;28;20040;-83
2023/10/04 11:26:57;;;;;;;1090.28;579.13;;;18.40;99.90;;;;;;5059446;28;20182;-79
2023/10/04 11:29:27;;;;;;;1072.95;583.78;;;18.40;99.90;;;;;;5072627;28;20048;-80
2023/10/04 11:31:55;;;;;;;1213.22;750.67;;;18.40;99.90;;;;;;5073920;28;20059;-81
2023/10/04 11:34:20;;;;;;;1058.93;571.67;;;18.40;99.90;;;;;;5073624;28;20047;-81
2023/10/04 11:36:47;;;;;;;1063.82;574.78;;;18.50;99.90;;;;;;5072347;28;20045;-81
2023/10/04 11:39:18;;;;;;;1048.22;561.85;;;18.40;99.90;;;;;;5087756;28;20522;-83
2023/10/04 11:41:50;;;;;;;1042.70;571.15;;;18.40;99.90;;;;;;5074728;28;20098;-83
2023/10/04 11:44:19;;;;;;;1031.60;572.58;;;18.50;99.90;;;;;;5092909;28;20123;-82
2023/10/04 11:47:03;;;;;;;1014.10;556.80;;;18.40;99.90;;;;;;5093478;28;20085;-83
2023/10/04 11:49:32;;;;;;;1165.13;750.08;;;18.50;99.90;;;;;;5093090;28;20056;-80
2023/10/04 11:51:59;;;;;;;1017.45;563.63;;;18.40;99.90;;;;;;5079501;28;20040;-82
2023/10/04 11:54:40;;;;;;;1041.82;564.67;;;18.50;99.90;;;;;;5073198;28;20044;-82
2023/10/04 11:57:06;;;;;;;1164.05;745.22;;;18.50;99.90;;;;;;5037778;28;20048;-82
2023/10/04 11:59:33;;;;;;;1170.68;744.38;;;18.40;99.90;;;;;;5055352;28;20094;-82
2023/10/04 12:02:00;;;;;;;1012.53;560.78;;;18.40;99.90;;;;;;5073037;28;20131;-82
2023/10/04 12:04:30;;;;;;;1180.45;750.25;;;18.40;99.90;;;;;;5073179;28;20048;-82
2023/10/04 12:07:09;;;;;;;1171.75;742.58;;;18.50;99.90;;;;;;5055637;28;20076;-82
2023/10/04 12:09:36;;;;;;;1061.70;571.40;;;18.50;99.90;;;;;;5055560;28;20122;-82
2023/10/04 12:12:03;;;;;;;1188.90;739.92;;;18.50;99.90;;;;;;5055130;28;20048;-82
2023/10/04 12:14:31;;;;;;;1208.93;738.72;;;18.50;99.90;;;;;;5055003;28;20459;-82
2023/10/04 12:17:04;;;;;;;1044.05;567.63;;;18.50;99.90;;;;;;5038122;28;20036;-81
2023/10/04 12:19:31;;;;;;;1079.07;574.65;;;18.50;99.90;;;;;;5072913;28;20437;-82